createdAt,value
2018-03-14T01:49:38.325Z,58.89
2018-03-14T01:52:17.012Z,58.81
2018-03-14T02:00:58.040Z,60.06
2018-03-14T02:11:59.063Z,62.09
2018-03-14T02:28:54.344Z,62.35
2018-03-14T02:51:24.448Z,61.77
2018-03-14T03:21:55.361Z,64.58
2018-03-14T03:29:56.627Z,62.15
2018-03-14T03:32:45.031Z,61.87
2018-03-14T03:35:29.638Z,62.16
2018-03-14T03:38:24.270Z,63.05
2018-03-14T03:46:42.647Z,65.44
2018-03-14T03:49:31.982Z,64.21
2018-03-14T03:52:11.102Z,64.18
2018-03-14T04:00:35.141Z,63.96
2018-03-14T04:09:23.284Z,64.67
2018-03-14T04:17:39.669Z,62.38
2018-03-14T04:20:18.032Z,62.71
2018-03-14T04:23:03.038Z,63.33
2018-03-14T04:25:40.362Z,64.29
2018-03-14T04:31:40.493Z,66.14
2018-03-14T04:53:06.175Z,63.20
2018-03-14T05:06:04.942Z,64.73
2018-03-14T05:23:47.803Z,66.63
2018-03-14T05:26:21.921Z,65.90
2018-03-14T05:28:56.023Z,65.80
2018-03-14T16:25:55.021Z,31.38
2018-03-14T16:41:02.683Z,32.60
2018-03-14T16:52:12.081Z,33.20
2018-03-14T20:25:36.715Z,55.89
2018-03-14T20:28:06.473Z,56.97
2018-03-14T20:30:35.501Z,57.54
2018-03-14T20:33:04.575Z,57.47
2018-03-14T20:35:34.062Z,57.72
2018-03-14T20:38:01.565Z,57.70
2018-03-14T20:40:31.024Z,55.87
2018-03-14T20:43:01.594Z,55.67
2018-03-14T20:45:30.537Z,54.88
2018-03-14T20:47:59.527Z,56.52
2018-03-14T20:50:31.067Z,56.82
2018-03-14T20:53:00.017Z,56.74
2018-03-14T20:55:29.622Z,57.02
2018-03-14T20:57:57.341Z,56.46
2018-03-14T21:00:28.012Z,56.74
2018-03-14T21:02:58.547Z,56.95
2018-03-14T21:05:27.997Z,56.58
2018-03-14T21:07:57.518Z,56.01
2018-03-14T21:10:26.192Z,55.87
2018-03-14T21:15:39.387Z,54.52
2018-03-14T21:18:15.294Z,54.63
2018-03-14T21:20:46.698Z,55.60
2018-03-14T21:23:16.730Z,54.55
2018-03-14T21:25:51.746Z,53.76
2018-03-14T21:28:22.723Z,53.50
2018-03-14T21:30:52.168Z,54.22
2018-03-14T21:33:24.407Z,55.60
2018-03-14T21:35:59.560Z,55.27
2018-03-14T21:38:37.896Z,56.83
2018-03-14T21:41:07.235Z,58.61
2018-03-14T21:43:38.935Z,58.04
2018-03-14T21:46:08.294Z,57.00
2018-03-14T21:48:52.626Z,57.90
2018-03-14T21:51:24.532Z,57.23
2018-03-14T21:53:54.028Z,56.43
2018-03-14T21:56:24.274Z,58.19
2018-03-14T21:58:52.676Z,58.68
2018-03-14T22:01:21.526Z,58.29
2018-03-14T22:03:53.284Z,58.50
2018-03-14T22:06:24.689Z,57.55
2018-03-14T22:08:54.734Z,57.32
2018-03-14T22:11:25.647Z,57.89
2018-03-14T22:13:54.444Z,56.59
2018-03-14T22:16:24.845Z,55.47
2018-03-14T22:18:54.398Z,54.78
2018-03-14T22:21:27.730Z,55.60
2018-03-14T22:23:55.657Z,56.14
2018-03-14T22:26:25.469Z,55.37
2018-03-14T22:28:54.233Z,55.71
2018-03-14T22:31:32.843Z,56.34
2018-03-14T22:34:07.327Z,57.68
2018-03-14T22:36:37.951Z,57.89
2018-03-14T22:39:06.831Z,58.62
2018-03-14T22:41:34.619Z,58.76
2018-03-14T22:44:05.492Z,58.01
2018-03-14T22:46:36.204Z,58.31
2018-03-14T22:49:04.566Z,59.39
2018-03-14T22:51:40.442Z,59.06
2018-03-14T22:54:12.215Z,59.53
2018-03-14T22:56:42.101Z,59.41
2018-03-14T22:59:10.883Z,58.92
2018-03-14T23:01:39.110Z,58.01
2018-03-14T23:04:09.818Z,57.48
2018-03-14T23:06:41.351Z,57.15
2018-03-14T23:09:10.199Z,56.06
2018-03-14T23:11:40.318Z,56.90
2018-03-14T23:14:09.697Z,57.63
2018-03-14T23:16:39.710Z,58.00
2018-03-14T23:19:16.513Z,57.59
2018-03-14T23:21:50.788Z,56.84
2018-03-14T23:24:20.508Z,56.27
2018-03-14T23:26:56.691Z,56.30
2018-03-14T23:29:31.115Z,56.75
2018-03-14T23:32:02.831Z,56.32
2018-03-14T23:34:31.524Z,56.93
2018-03-14T23:37:00.756Z,56.37
2018-03-14T23:39:36.915Z,55.77
2018-03-14T23:42:06.283Z,55.16
2018-03-14T23:44:36.611Z,55.22
2018-03-14T23:47:06.509Z,55.20
2018-03-14T23:49:40.221Z,54.68
2018-03-14T23:52:12.940Z,55.19
2018-03-14T23:54:43.943Z,56.14
2018-03-14T23:57:13.420Z,56.33
2018-03-14T23:59:41.819Z,57.77
